sensor_id;sensor_type;location;lat;lon;timestamp;temperature;humidity
45837;DHT22;31548;51.420;-0.040;2023-12-20T00:00:06;5.80;99.90
45837;DHT22;31548;51.420;-0.040;2023-12-20T00:02:35;5.80;99.90
45837;DHT22;31548;51.420;-0.040;2023-12-20T00:05:03;5.80;99.90
45837;DHT22;31548;51.420;-0.040;2023-12-20T00:07:31;5.70;99.90
45837;DHT22;31548;51.420;-0.040;2023-12-20T00:09:59;5.80;99.90
45837;DHT22;31548;51.420;-0.040;2023-12-20T00:12:27;5.80;99.90
45837;DHT22;31548;51.420;-0.040;2023-12-20T00:14:55;5.70;99.90
45837;DHT22;31548;51.420;-0.040;2023-12-20T00:17:23;5.80;99.90
45837;DHT22;31548;51.420;-0.040;2023-12-20T00:19:51;5.80;99.90
45837;DHT22;31548;51.420;-0.040;2023-12-20T00:22:19;5.80;99.90
45837;DHT22;31548;51.420;-0.040;2023-12-20T00:24:47;5.80;99.90
45837;DHT22;31548;51.420;-0.040;2023-12-20T00:27:15;5.80;99.90
45837;DHT22;31548;51.420;-0.040;2023-12-20T00:29:43;5.70;99.90
45837;DHT22;31548;51.420;-0.040;2023-12-20T00:32:15;5.70;99.90
45837;DHT22;31548;51.420;-0.040;2023-12-20T00:34:43;5.70;99.90
45837;DHT22;31548;51.420;-0.040;2023-12-20T00:37:11;5.70;99.90
45837;DHT22;31548;51.420;-0.040;2023-12-20T00:39:39;5.70;99.90
45837;DHT22;31548;51.420;-0.040;2023-12-20T00:42:07;5.70;99.90
45837;DHT22;31548;51.420;-0.040;2023-12-20T00:44:35;5.70;99.90
45837;DHT22;31548;51.420;-0.040;2023-12-20T00:47:03;5.60;99.90
45837;DHT22;31548;51.420;-0.040;2023-12-20T00:49:31;5.60;99.90
45837;DHT22;31548;51.420;-0.040;2023-12-20T00:51:58;5.60;99.90
45837;DHT22;31548;51.420;-0.040;2023-12-20T00:54:26;5.60;99.90
45837;DHT22;31548;51.420;-0.040;2023-12-20T00:56:54;5.60;99.90
45837;DHT22;31548;51.420;-0.040;2023-12-20T00:59:22;5.60;99.90
45837;DHT22;31548;51.420;-0.040;2023-12-20T01:01:50;5.60;99.90
45837;DHT22;31548;51.420;-0.040;2023-12-20T01:04:18;5.60;99.90
45837;DHT22;31548;51.420;-0.040;2023-12-20T01:06:46;5.60;99.90
45837;DHT22;31548;51.420;-0.040;2023-12-20T01:09:14;5.60;99.90
45837;DHT22;31548;51.420;-0.040;2023-12-20T01:11:43;5.60;99.90
45837;DHT22;31548;51.420;-0.040;2023-12-20T01:14:11;5.60;99.90
45837;DHT22;31548;51.420;-0.040;2023-12-20T01:16:39;5.60;99.90
45837;DHT22;31548;51.420;-0.040;2023-12-20T01:19:06;5.60;99.90
45837;DHT22;31548;51.420;-0.040;2023-12-20T01:21:34;5.60;99.90
45837;DHT22;31548;51.420;-0.040;2023-12-20T01:24:03;5.70;99.90
45837;DHT22;31548;51.420;-0.040;2023-12-20T01:26:31;5.70;99.90
45837;DHT22;31548;51.420;-0.040;2023-12-20T01:28:59;5.70;99.90
45837;DHT22;31548;51.420;-0.040;2023-12-20T01:31:26;5.80;99.90
45837;DHT22;31548;51.420;-0.040;2023-12-20T01:33:54;5.80;99.90
45837;DHT22;31548;51.420;-0.040;2023-12-20T01:36:22;5.80;99.90
45837;DHT22;31548;51.420;-0.040;2023-12-20T01:38:50;5.80;99.90
45837;DHT22;31548;51.420;-0.040;2023-12-20T01:41:18;5.80;99.90
45837;DHT22;31548;51.420;-0.040;2023-12-20T01:43:45;5.80;99.90
45837;DHT22;31548;51.420;-0.040;2023-12-20T01:46:19;5.90;99.90
45837;DHT22;31548;51.420;-0.040;2023-12-20T01:48:48;5.90;99.90
45837;DHT22;31548;51.420;-0.040;2023-12-20T01:51:16;5.90;99.90
45837;DHT22;31548;51.420;-0.040;2023-12-20T01:53:45;5.90;99.90
45837;DHT22;31548;51.420;-0.040;2023-12-20T01:56:13;5.90;99.90
45837;DHT22;31548;51.420;-0.040;2023-12-20T01:58:45;5.90;99.90
45837;DHT22;31548;51.420;-0.040;2023-12-20T02:01:14;5.90;99.90
45837;DHT22;31548;51.420;-0.040;2023-12-20T02:03:42;5.90;99.90
45837;DHT22;31548;51.420;-0.040;2023-12-20T02:06:11;5.90;99.90
45837;DHT22;31548;51.420;-0.040;2023-12-20T02:08:39;5.90;99.90
45837;DHT22;31548;51.420;-0.040;2023-12-20T02:11:06;5.90;99.90
45837;DHT22;31548;51.420;-0.040;2023-12-20T02:13:37;5.90;99.90
45837;DHT22;31548;51.420;-0.040;2023-12-20T02:16:05;5.90;99.90
45837;DHT22;31548;51.420;-0.040;2023-12-20T02:18:35;5.90;99.90
45837;DHT22;31548;51.420;-0.040;2023-12-20T02:21:05;5.90;99.90
45837;DHT22;31548;51.420;-0.040;2023-12-20T02:23:33;5.90;99.90
45837;DHT22;31548;51.420;-0.040;2023-12-20T02:26:00;5.90;99.90
45837;DHT22;31548;51.420;-0.040;2023-12-20T02:28:29;5.90;99.90
45837;DHT22;31548;51.420;-0.040;2023-12-20T02:30:57;5.90;99.90
45837;DHT22;31548;51.420;-0.040;2023-12-20T02:33:25;5.90;99.90
45837;DHT22;31548;51.420;-0.040;2023-12-20T02:35:53;5.90;99.90
45837;DHT22;31548;51.420;-0.040;2023-12-20T02:38:20;5.90;99.90
45837;DHT22;31548;51.420;-0.040;2023-12-20T02:40:49;5.90;99.90
45837;DHT22;31548;51.420;-0.040;2023-12-20T02:43:16;5.90;99.90
45837;DHT22;31548;51.420;-0.040;2023-12-20T02:45:44;5.90;99.90
45837;DHT22;31548;51.420;-0.040;2023-12-20T02:48:12;5.90;99.90
45837;DHT22;31548;51.420;-0.040;2023-12-20T02:50:40;5.90;99.90
45837;DHT22;31548;51.420;-0.040;2023-12-20T02:53:08;5.90;99.90
45837;DHT22;31548;51.420;-0.040;2023-12-20T02:55:36;5.90;99.90
45837;DHT22;31548;51.420;-0.040;2023-12-20T02:58:03;5.90;99.90
45837;DHT22;31548;51.420;-0.040;2023-12-20T03:00:31;5.90;99.90
45837;DHT22;31548;51.420;-0.040;2023-12-20T03:02:59;5.90;99.90
45837;DHT22;31548;51.420;-0.040;2023-12-20T03:05:27;5.90;99.90
45837;DHT22;31548;51.420;-0.040;2023-12-20T03:07:55;5.90;99.90
45837;DHT22;31548;51.420;-0.040;2023-12-20T03:10:23;5.80;99.90
45837;DHT22;31548;51.420;-0.040;2023-12-20T03:12:53;5.80;99.90
45837;DHT22;31548;51.420;-0.040;2023-12-20T03:15:21;5.80;99.90
45837;DHT22;31548;51.420;-0.040;2023-12-20T03:17:49;5.80;99.90
45837;DHT22;31548;51.420;-0.040;2023-12-20T03:20:17;5.70;99.90
45837;DHT22;31548;51.420;-0.040;2023-12-20T03:22:45;5.80;99.90
45837;DHT22;31548;51.420;-0.040;2023-12-20T03:25:13;5.80;99.90
45837;DHT22;31548;51.420;-0.040;2023-12-20T03:27:41;5.80;99.90
45837;DHT22;31548;51.420;-0.040;2023-12-20T03:30:09;5.80;99.90
45837;DHT22;31548;51.420;-0.040;2023-12-20T03:32:38;5.80;99.90
45837;DHT22;31548;51.420;-0.040;2023-12-20T03:35:06;5.80;99.90
45837;DHT22;31548;51.420;-0.040;2023-12-20T03:37:34;5.70;99.90
45837;DHT22;31548;51.420;-0.040;2023-12-20T03:40:02;5.70;99.90
45837;DHT22;31548;51.420;-0.040;2023-12-20T03:42:30;5.70;99.90
45837;DHT22;31548;51.420;-0.040;2023-12-20T03:44:58;5.70;99.90
45837;DHT22;31548;51.420;-0.040;2023-12-20T03:47:26;5.80;99.90
45837;DHT22;31548;51.420;-0.040;2023-12-20T03:49:53;5.80;99.90
45837;DHT22;31548;51.420;-0.040;2023-12-20T03:52:21;5.80;99.90
45837;DHT22;31548;51.420;-0.040;2023-12-20T03:54:49;5.70;99.90
45837;DHT22;31548;51.420;-0.040;2023-12-20T03:57:17;5.80;99.90
45837;DHT22;31548;51.420;-0.040;2023-12-20T03:59:44;5.80;99.90
45837;DHT22;31548;51.420;-0.040;2023-12-20T04:02:12;5.80;99.90
45837;DHT22;31548;51.420;-0.040;2023-12-20T04:04:40;5.80;99.90
45837;DHT22;31548;51.420;-0.040;2023-12-20T04:07:08;5.80;99.90
45837;DHT22;31548;51.420;-0.040;2023-12-20T04:09:36;5.80;99.90
45837;DHT22;31548;51.420;-0.040;2023-12-20T04:12:05;5.80;99.90
45837;DHT22;31548;51.420;-0.040;2023-12-20T04:14:33;5.90;99.90
45837;DHT22;31548;51.420;-0.040;2023-12-20T04:17:01;5.90;99.90
45837;DHT22;31548;51.420;-0.040;2023-12-20T04:19:29;5.90;99.90
45837;DHT22;31548;51.420;-0.040;2023-12-20T04:21:57;5.90;99.90
45837;DHT22;31548;51.420;-0.040;2023-12-20T04:24:25;5.90;99.90
45837;DHT22;31548;51.420;-0.040;2023-12-20T04:26:53;5.90;99.90
45837;DHT22;31548;51.420;-0.040;2023-12-20T04:29:21;5.90;99.90
45837;DHT22;31548;51.420;-0.040;2023-12-20T04:31:49;6.00;99.90
45837;DHT22;31548;51.420;-0.040;2023-12-20T04:34:19;6.00;99.90
45837;DHT22;31548;51.420;-0.040;2023-12-20T04:36:47;6.00;99.90
45837;DHT22;31548;51.420;-0.040;2023-12-20T04:39:15;6.00;99.90
45837;DHT22;31548;51.420;-0.040;2023-12-20T04:41:43;6.00;99.90
45837;DHT22;31548;51.420;-0.040;2023-12-20T04:44:11;6.00;99.90
45837;DHT22;31548;51.420;-0.040;2023-12-20T04:46:39;6.00;99.90
45837;DHT22;31548;51.420;-0.040;2023-12-20T04:49:07;6.00;99.90
45837;DHT22;31548;51.420;-0.040;2023-12-20T04:51:35;6.00;99.90
45837;DHT22;31548;51.420;-0.040;2023-12-20T04:54:03;6.00;99.90
45837;DHT22;31548;51.420;-0.040;2023-12-20T04:56:31;6.00;99.90
45837;DHT22;31548;51.420;-0.040;2023-12-20T04:58:59;6.10;99.90
45837;DHT22;31548;51.420;-0.040;2023-12-20T05:01:27;6.00;99.90
45837;DHT22;31548;51.420;-0.040;2023-12-20T05:03:55;6.00;99.90
45837;DHT22;31548;51.420;-0.040;2023-12-20T05:06:23;6.00;99.90
45837;DHT22;31548;51.420;-0.040;2023-12-20T05:08:52;6.00;99.90
45837;DHT22;31548;51.420;-0.040;2023-12-20T05:11:19;6.00;99.90
45837;DHT22;31548;51.420;-0.040;2023-12-20T05:13:47;6.00;99.90
45837;DHT22;31548;51.420;-0.040;2023-12-20T05:16:17;6.00;99.90
45837;DHT22;31548;51.420;-0.040;2023-12-20T05:18:49;6.00;99.90
45837;DHT22;31548;51.420;-0.040;2023-12-20T05:21:17;6.00;99.90
45837;DHT22;31548;51.420;-0.040;2023-12-20T05:23:45;6.00;99.90
45837;DHT22;31548;51.420;-0.040;2023-12-20T05:26:13;5.90;99.90
45837;DHT22;31548;51.420;-0.040;2023-12-20T05:28:41;5.90;99.90
45837;DHT22;31548;51.420;-0.040;2023-12-20T05:31:09;5.90;99.90
45837;DHT22;31548;51.420;-0.040;2023-12-20T05:33:37;5.90;99.90
45837;DHT22;31548;51.420;-0.040;2023-12-20T05:36:05;5.90;99.90
45837;DHT22;31548;51.420;-0.040;2023-12-20T05:38:33;5.80;99.90
45837;DHT22;31548;51.420;-0.040;2023-12-20T05:41:00;5.80;99.90
45837;DHT22;31548;51.420;-0.040;2023-12-20T05:43:28;5.80;99.90
45837;DHT22;31548;51.420;-0.040;2023-12-20T05:45:56;5.80;99.90
45837;DHT22;31548;51.420;-0.040;2023-12-20T05:48:24;5.80;99.90
45837;DHT22;31548;51.420;-0.040;2023-12-20T05:50:51;5.80;99.90
45837;DHT22;31548;51.420;-0.040;2023-12-20T05:53:19;5.90;99.90
45837;DHT22;31548;51.420;-0.040;2023-12-20T05:55:47;5.80;99.90
45837;DHT22;31548;51.420;-0.040;2023-12-20T05:58:15;5.90;99.90
45837;DHT22;31548;51.420;-0.040;2023-12-20T06:00:44;5.90;99.90
45837;DHT22;31548;51.420;-0.040;2023-12-20T06:03:12;5.90;99.90
45837;DHT22;31548;51.420;-0.040;2023-12-20T06:05:40;5.90;99.90
45837;DHT22;31548;51.420;-0.040;2023-12-20T06:08:08;5.90;99.90
45837;DHT22;31548;51.420;-0.040;2023-12-20T06:10:36;5.90;99.90
45837;DHT22;31548;51.420;-0.040;2023-12-20T06:13:03;5.90;99.90
45837;DHT22;31548;51.420;-0.040;2023-12-20T06:15:34;6.00;99.90
45837;DHT22;31548;51.420;-0.040;2023-12-20T06:18:03;6.00;99.90
45837;DHT22;31548;51.420;-0.040;2023-12-20T06:20:30;6.00;99.90
45837;DHT22;31548;51.420;-0.040;2023-12-20T06:22:58;6.00;99.90
45837;DHT22;31548;51.420;-0.040;2023-12-20T06:25:26;6.00;99.90
45837;DHT22;31548;51.420;-0.040;2023-12-20T06:27:54;6.00;99.90
45837;DHT22;31548;51.420;-0.040;2023-12-20T06:30:22;6.00;99.90
45837;DHT22;31548;51.420;-0.040;2023-12-20T06:32:50;6.00;99.90
45837;DHT22;31548;51.420;-0.040;2023-12-20T06:35:18;6.00;99.90
45837;DHT22;31548;51.420;-0.040;2023-12-20T06:37:46;6.00;99.90
45837;DHT22;31548;51.420;-0.040;2023-12-20T06:40:14;6.00;99.90
45837;DHT22;31548;51.420;-0.040;2023-12-20T06:42:45;6.00;99.90
45837;DHT22;31548;51.420;-0.040;2023-12-20T06:45:28;6.10;99.90
45837;DHT22;31548;51.420;-0.040;2023-12-20T06:47:56;6.10;99.90
45837;DHT22;31548;51.420;-0.040;2023-12-20T06:50:24;6.10;99.90
45837;DHT22;31548;51.420;-0.040;2023-12-20T06:52:52;6.10;99.90
45837;DHT22;31548;51.420;-0.040;2023-12-20T06:55:20;6.10;99.90
45837;DHT22;31548;51.420;-0.040;2023-12-20T06:57:48;6.10;99.90
45837;DHT22;31548;51.420;-0.040;2023-12-20T07:00:16;6.10;99.90
45837;DHT22;31548;51.420;-0.040;2023-12-20T07:02:45;6.10;99.90
45837;DHT22;31548;51.420;-0.040;2023-12-20T07:05:17;6.10;99.90
45837;DHT22;31548;51.420;-0.040;2023-12-20T07:07:47;6.10;99.90
45837;DHT22;31548;51.420;-0.040;2023-12-20T07:10:15;6.10;99.90
45837;DHT22;31548;51.420;-0.040;2023-12-20T07:12:43;6.10;99.90
45837;DHT22;31548;51.420;-0.040;2023-12-20T07:15:11;6.10;99.90
45837;DHT22;31548;51.420;-0.040;2023-12-20T07:17:39;6.20;99.90
45837;DHT22;31548;51.420;-0.040;2023-12-20T07:20:08;6.20;99.90
45837;DHT22;31548;51.420;-0.040;2023-12-20T07:22:38;6.20;99.90
45837;DHT22;31548;51.420;-0.040;2023-12-20T07:25:07;6.20;99.90
45837;DHT22;31548;51.420;-0.040;2023-12-20T07:27:35;6.10;99.90
45837;DHT22;31548;51.420;-0.040;2023-12-20T07:30:03;6.20;99.90
45837;DHT22;31548;51.420;-0.040;2023-12-20T07:32:31;6.20;99.90
45837;DHT22;31548;51.420;-0.040;2023-12-20T07:34:59;6.20;99.90
45837;DHT22;31548;51.420;-0.040;2023-12-20T07:37:28;6.20;99.90
45837;DHT22;31548;51.420;-0.040;2023-12-20T07:39:55;6.20;99.90
45837;DHT22;31548;51.420;-0.040;2023-12-20T07:42:23;6.30;99.90
45837;DHT22;31548;51.420;-0.040;2023-12-20T07:44:51;6.30;99.90
45837;DHT22;31548;51.420;-0.040;2023-12-20T07:47:19;6.30;99.90
45837;DHT22;31548;51.420;-0.040;2023-12-20T07:49:49;6.30;99.90
45837;DHT22;31548;51.420;-0.040;2023-12-20T07:52:19;6.30;99.90
45837;DHT22;31548;51.420;-0.040;2023-12-20T07:54:49;6.30;99.90
45837;DHT22;31548;51.420;-0.040;2023-12-20T07:57:17;6.40;99.90
45837;DHT22;31548;51.420;-0.040;2023-12-20T07:59:45;6.40;99.90
45837;DHT22;31548;51.420;-0.040;2023-12-20T08:02:13;6.40;99.90
45837;DHT22;31548;51.420;-0.040;2023-12-20T08:04:41;6.40;99.90
45837;DHT22;31548;51.420;-0.040;2023-12-20T08:07:09;6.40;99.90
45837;DHT22;31548;51.420;-0.040;2023-12-20T08:09:37;6.50;99.90
45837;DHT22;31548;51.420;-0.040;2023-12-20T08:12:05;6.50;99.90
45837;DHT22;31548;51.420;-0.040;2023-12-20T08:14:34;6.50;99.90
45837;DHT22;31548;51.420;-0.040;2023-12-20T08:17:02;6.50;99.90
45837;DHT22;31548;51.420;-0.040;2023-12-20T08:19:29;6.50;99.90
45837;DHT22;31548;51.420;-0.040;2023-12-20T08:21:58;6.50;99.90
45837;DHT22;31548;51.420;-0.040;2023-12-20T08:24:26;6.50;99.90
45837;DHT22;31548;51.420;-0.040;2023-12-20T08:26:54;6.50;99.90
45837;DHT22;31548;51.420;-0.040;2023-12-20T08:29:22;6.50;99.90
45837;DHT22;31548;51.420;-0.040;2023-12-20T08:31:55;6.50;99.90
45837;DHT22;31548;51.420;-0.040;2023-12-20T08:34:34;6.60;99.90
45837;DHT22;31548;51.420;-0.040;2023-12-20T08:37:02;6.60;99.90
45837;DHT22;31548;51.420;-0.040;2023-12-20T08:39:30;6.60;99.90
45837;DHT22;31548;51.420;-0.040;2023-12-20T08:41:59;6.60;99.90
45837;DHT22;31548;51.420;-0.040;2023-12-20T08:44:27;6.70;99.90
45837;DHT22;31548;51.420;-0.040;2023-12-20T08:46:55;6.60;99.90
45837;DHT22;31548;51.420;-0.040;2023-12-20T08:49:24;6.70;99.90
45837;DHT22;31548;51.420;-0.040;2023-12-20T08:51:53;6.80;99.90
45837;DHT22;31548;51.420;-0.040;2023-12-20T08:54:21;6.80;99.90
45837;DHT22;31548;51.420;-0.040;2023-12-20T08:56:49;6.80;99.90
45837;DHT22;31548;51.420;-0.040;2023-12-20T08:59:17;6.80;99.90
45837;DHT22;31548;51.420;-0.040;2023-12-20T09:01:46;6.90;99.90
45837;DHT22;31548;51.420;-0.040;2023-12-20T09:04:15;7.00;99.90
45837;DHT22;31548;51.420;-0.040;2023-12-20T09:06:44;7.00;99.90
45837;DHT22;31548;51.420;-0.040;2023-12-20T09:09:27;7.10;99.90
45837;DHT22;31548;51.420;-0.040;2023-12-20T09:12:20;7.10;99.90
45837;DHT22;31548;51.420;-0.040;2023-12-20T09:14:50;7.20;99.90
45837;DHT22;31548;51.420;-0.040;2023-12-20T09:17:18;7.20;99.90
45837;DHT22;31548;51.420;-0.040;2023-12-20T09:19:46;7.30;99.90
45837;DHT22;31548;51.420;-0.040;2023-12-20T09:22:14;7.30;99.90
45837;DHT22;31548;51.420;-0.040;2023-12-20T09:24:42;7.40;99.90
45837;DHT22;31548;51.420;-0.040;2023-12-20T09:27:10;7.40;99.90
45837;DHT22;31548;51.420;-0.040;2023-12-20T09:29:41;7.40;99.90
45837;DHT22;31548;51.420;-0.040;2023-12-20T09:32:09;7.50;99.90
45837;DHT22;31548;51.420;-0.040;2023-12-20T09:34:37;7.50;99.90
45837;DHT22;31548;51.420;-0.040;2023-12-20T09:37:05;7.60;99.90
45837;DHT22;31548;51.420;-0.040;2023-12-20T09:39:33;7.60;99.90
45837;DHT22;31548;51.420;-0.040;2023-12-20T09:42:05;7.70;99.90
45837;DHT22;31548;51.420;-0.040;2023-12-20T09:44:34;7.80;99.90
45837;DHT22;31548;51.420;-0.040;2023-12-20T09:47:04;7.90;99.90
45837;DHT22;31548;51.420;-0.040;2023-12-20T09:49:33;7.90;99.90
45837;DHT22;31548;51.420;-0.040;2023-12-20T09:52:01;8.00;99.90
45837;DHT22;31548;51.420;-0.040;2023-12-20T09:54:30;8.00;99.90
45837;DHT22;31548;51.420;-0.040;2023-12-20T09:56:59;8.10;99.90
45837;DHT22;31548;51.420;-0.040;2023-12-20T09:59:26;8.10;99.90
45837;DHT22;31548;51.420;-0.040;2023-12-20T10:01:55;8.20;99.90
45837;DHT22;31548;51.420;-0.040;2023-12-20T10:04:27;8.30;99.90
45837;DHT22;31548;51.420;-0.040;2023-12-20T10:06:57;8.30;99.90
45837;DHT22;31548;51.420;-0.040;2023-12-20T10:09:31;8.40;99.90
45837;DHT22;31548;51.420;-0.040;2023-12-20T10:12:00;8.40;99.90
45837;DHT22;31548;51.420;-0.040;2023-12-20T10:14:28;8.50;99.90
45837;DHT22;31548;51.420;-0.040;2023-12-20T10:17:02;8.50;99.90
45837;DHT22;31548;51.420;-0.040;2023-12-20T10:19:30;8.50;99.90
45837;DHT22;31548;51.420;-0.040;2023-12-20T10:22:04;8.50;99.90
45837;DHT22;31548;51.420;-0.040;2023-12-20T10:24:32;8.60;99.90
45837;DHT22;31548;51.420;-0.040;2023-12-20T10:27:05;8.60;99.90
45837;DHT22;31548;51.420;-0.040;2023-12-20T10:29:34;8.60;99.90
45837;DHT22;31548;51.420;-0.040;2023-12-20T10:32:24;8.70;99.90
45837;DHT22;31548;51.420;-0.040;2023-12-20T10:34:53;8.70;99.90
45837;DHT22;31548;51.420;-0.040;2023-12-20T10:37:22;8.70;99.90
45837;DHT22;31548;51.420;-0.040;2023-12-20T10:39:51;8.80;99.90
45837;DHT22;31548;51.420;-0.040;2023-12-20T10:42:26;8.80;99.90
45837;DHT22;31548;51.420;-0.040;2023-12-20T10:44:55;8.80;99.90
45837;DHT22;31548;51.420;-0.040;2023-12-20T10:47:25;8.90;99.90
45837;DHT22;31548;51.420;-0.040;2023-12-20T10:49:54;8.90;99.90
45837;DHT22;31548;51.420;-0.040;2023-12-20T10:52:23;8.90;99.90
45837;DHT22;31548;51.420;-0.040;2023-12-20T10:54:52;9.00;99.90
45837;DHT22;31548;51.420;-0.040;2023-12-20T10:57:22;9.00;99.90
45837;DHT22;31548;51.420;-0.040;2023-12-20T10:59:52;9.00;99.90
45837;DHT22;31548;51.420;-0.040;2023-12-20T11:02:22;9.00;99.90
45837;DHT22;31548;51.420;-0.040;2023-12-20T11:10:29;9.10;99.90
45837;DHT22;31548;51.420;-0.040;2023-12-20T11:13:07;9.00;99.90
45837;DHT22;31548;51.420;-0.040;2023-12-20T11:15:39;9.10;99.90
45837;DHT22;31548;51.420;-0.040;2023-12-20T11:18:09;9.10;99.90
45837;DHT22;31548;51.420;-0.040;2023-12-20T11:20:40;9.10;99.90
45837;DHT22;31548;51.420;-0.040;2023-12-20T11:23:09;9.10;99.90
45837;DHT22;31548;51.420;-0.040;2023-12-20T11:25:47;9.10;99.90
45837;DHT22;31548;51.420;-0.040;2023-12-20T11:28:21;9.10;99.90
45837;DHT22;31548;51.420;-0.040;2023-12-20T11:30:55;9.10;99.90
45837;DHT22;31548;51.420;-0.040;2023-12-20T11:33:25;9.20;99.90
45837;DHT22;31548;51.420;-0.040;2023-12-20T11:35:57;9.20;99.90
45837;DHT22;31548;51.420;-0.040;2023-12-20T11:38:27;9.20;99.90
45837;DHT22;31548;51.420;-0.040;2023-12-20T11:40:54;9.30;99.90
45837;DHT22;31548;51.420;-0.040;2023-12-20T11:43:30;9.30;99.90
45837;DHT22;31548;51.420;-0.040;2023-12-20T11:46:07;9.30;99.90
45837;DHT22;31548;51.420;-0.040;2023-12-20T11:48:38;9.30;99.90
45837;DHT22;31548;51.420;-0.040;2023-12-20T11:51:13;9.30;99.90
45837;DHT22;31548;51.420;-0.040;2023-12-20T11:53:41;9.30;99.90
45837;DHT22;31548;51.420;-0.040;2023-12-20T11:56:10;9.40;99.90
45837;DHT22;31548;51.420;-0.040;2023-12-20T11:58:38;9.40;99.90
45837;DHT22;31548;51.420;-0.040;2023-12-20T12:01:06;9.50;99.90
45837;DHT22;31548;51.420;-0.040;2023-12-20T12:03:36;9.50;99.90
45837;DHT22;31548;51.420;-0.040;2023-12-20T12:06:04;9.60;99.90
45837;DHT22;31548;51.420;-0.040;2023-12-20T12:08:32;9.60;99.90
45837;DHT22;31548;51.420;-0.040;2023-12-20T12:11:01;9.70;99.90
45837;DHT22;31548;51.420;-0.040;2023-12-20T12:13:29;9.70;99.90
45837;DHT22;31548;51.420;-0.040;2023-12-20T12:15:57;9.80;99.90
45837;DHT22;31548;51.420;-0.040;2023-12-20T12:18:26;9.80;99.90
45837;DHT22;31548;51.420;-0.040;2023-12-20T12:21:00;9.80;99.90
45837;DHT22;31548;51.420;-0.040;2023-12-20T12:23:30;9.80;99.90
45837;DHT22;31548;51.420;-0.040;2023-12-20T12:25:58;9.80;99.90
45837;DHT22;31548;51.420;-0.040;2023-12-20T12:28:26;9.80;99.90
45837;DHT22;31548;51.420;-0.040;2023-12-20T12:30:59;9.80;99.90
45837;DHT22;31548;51.420;-0.040;2023-12-20T12:33:27;9.80;99.90
45837;DHT22;31548;51.420;-0.040;2023-12-20T12:35:55;9.80;99.90
45837;DHT22;31548;51.420;-0.040;2023-12-20T12:38:24;9.80;99.90
45837;DHT22;31548;51.420;-0.040;2023-12-20T12:40:52;9.90;99.90
45837;DHT22;31548;51.420;-0.040;2023-12-20T12:43:21;10.00;99.90
45837;DHT22;31548;51.420;-0.040;2023-12-20T12:45:50;10.20;99.90
45837;DHT22;31548;51.420;-0.040;2023-12-20T12:48:18;10.20;99.90
45837;DHT22;31548;51.420;-0.040;2023-12-20T12:50:46;10.20;99.90
45837;DHT22;31548;51.420;-0.040;2023-12-20T12:53:14;10.30;99.90
45837;DHT22;31548;51.420;-0.040;2023-12-20T12:55:41;10.30;99.90
45837;DHT22;31548;51.420;-0.040;2023-12-20T12:58:09;10.40;99.90
45837;DHT22;31548;51.420;-0.040;2023-12-20T13:00:37;10.40;99.90
45837;DHT22;31548;51.420;-0.040;2023-12-20T13:03:04;10.40;99.90
45837;DHT22;31548;51.420;-0.040;2023-12-20T13:05:32;10.40;99.90
45837;DHT22;31548;51.420;-0.040;2023-12-20T13:08:06;10.50;99.90
45837;DHT22;31548;51.420;-0.040;2023-12-20T13:10:34;10.50;99.90
45837;DHT22;31548;51.420;-0.040;2023-12-20T13:13:02;10.50;99.90
45837;DHT22;31548;51.420;-0.040;2023-12-20T13:15:29;10.50;99.90
45837;DHT22;31548;51.420;-0.040;2023-12-20T13:17:57;10.60;99.90
45837;DHT22;31548;51.420;-0.040;2023-12-20T13:20:25;10.60;99.90
45837;DHT22;31548;51.420;-0.040;2023-12-20T13:22:53;10.60;99.90
45837;DHT22;31548;51.420;-0.040;2023-12-20T13:25:21;10.60;99.90
45837;DHT22;31548;51.420;-0.040;2023-12-20T13:27:49;10.60;99.90
45837;DHT22;31548;51.420;-0.040;2023-12-20T13:30:17;10.60;99.90
45837;DHT22;31548;51.420;-0.040;2023-12-20T13:32:46;10.60;99.90
45837;DHT22;31548;51.420;-0.040;2023-12-20T13:35:14;10.60;99.90
45837;DHT22;31548;51.420;-0.040;2023-12-20T13:37:42;10.60;99.90
45837;DHT22;31548;51.420;-0.040;2023-12-20T13:40:10;10.60;99.90
45837;DHT22;31548;51.420;-0.040;2023-12-20T13:42:39;10.60;99.90
45837;DHT22;31548;51.420;-0.040;2023-12-20T13:45:07;10.50;99.90
45837;DHT22;31548;51.420;-0.040;2023-12-20T13:47:35;10.50;99.90
45837;DHT22;31548;51.420;-0.040;2023-12-20T13:50:13;10.60;99.90
45837;DHT22;31548;51.420;-0.040;2023-12-20T13:53:11;10.60;99.90
45837;DHT22;31548;51.420;-0.040;2023-12-20T13:55:39;10.50;99.90
45837;DHT22;31548;51.420;-0.040;2023-12-20T13:58:07;10.60;99.90
45837;DHT22;31548;51.420;-0.040;2023-12-20T14:00:37;10.60;99.90
45837;DHT22;31548;51.420;-0.040;2023-12-20T14:03:05;10.60;99.90
45837;DHT22;31548;51.420;-0.040;2023-12-20T14:05:32;10.60;99.90
45837;DHT22;31548;51.420;-0.040;2023-12-20T14:08:01;10.70;99.90
45837;DHT22;31548;51.420;-0.040;2023-12-20T14:10:29;10.70;99.90
45837;DHT22;31548;51.420;-0.040;2023-12-20T14:12:57;10.70;99.90
45837;DHT22;31548;51.420;-0.040;2023-12-20T14:15:25;10.70;99.90
45837;DHT22;31548;51.420;-0.040;2023-12-20T14:17:53;10.70;99.90
45837;DHT22;31548;51.420;-0.040;2023-12-20T14:20:22;10.70;99.90
45837;DHT22;31548;51.420;-0.040;2023-12-20T14:22:50;10.70;99.90
45837;DHT22;31548;51.420;-0.040;2023-12-20T14:25:17;10.70;99.90
45837;DHT22;31548;51.420;-0.040;2023-12-20T14:27:45;10.70;99.90
45837;DHT22;31548;51.420;-0.040;2023-12-20T14:30:13;10.70;99.90
45837;DHT22;31548;51.420;-0.040;2023-12-20T14:32:42;10.70;99.90
45837;DHT22;31548;51.420;-0.040;2023-12-20T14:35:10;10.70;99.90
45837;DHT22;31548;51.420;-0.040;2023-12-20T14:37:38;10.70;99.90
45837;DHT22;31548;51.420;-0.040;2023-12-20T14:40:07;10.70;99.90
45837;DHT22;31548;51.420;-0.040;2023-12-20T14:42:44;10.70;99.90
45837;DHT22;31548;51.420;-0.040;2023-12-20T14:45:12;10.70;99.90
45837;DHT22;31548;51.420;-0.040;2023-12-20T14:47:46;10.70;99.90
45837;DHT22;31548;51.420;-0.040;2023-12-20T14:50:16;10.70;99.90
45837;DHT22;31548;51.420;-0.040;2023-12-20T14:52:46;10.70;99.90
45837;DHT22;31548;51.420;-0.040;2023-12-20T14:55:14;10.70;99.90
45837;DHT22;31548;51.420;-0.040;2023-12-20T14:57:43;10.70;99.90
45837;DHT22;31548;51.420;-0.040;2023-12-20T15:00:11;10.70;99.90
45837;DHT22;31548;51.420;-0.040;2023-12-20T15:02:44;10.70;99.90
45837;DHT22;31548;51.420;-0.040;2023-12-20T15:05:12;10.70;99.90
45837;DHT22;31548;51.420;-0.040;2023-12-20T15:07:41;10.70;99.90
45837;DHT22;31548;51.420;-0.040;2023-12-20T15:10:11;10.70;99.90
45837;DHT22;31548;51.420;-0.040;2023-12-20T15:12:39;10.70;99.90
45837;DHT22;31548;51.420;-0.040;2023-12-20T15:15:07;10.60;99.90
45837;DHT22;31548;51.420;-0.040;2023-12-20T15:17:37;10.60;99.90
45837;DHT22;31548;51.420;-0.040;2023-12-20T15:20:05;10.70;99.90
45837;DHT22;31548;51.420;-0.040;2023-12-20T15:22:32;10.60;99.90
45837;DHT22;31548;51.420;-0.040;2023-12-20T15:25:04;10.60;99.90
45837;DHT22;31548;51.420;-0.040;2023-12-20T15:27:35;10.60;99.90
45837;DHT22;31548;51.420;-0.040;2023-12-20T15:30:05;10.60;99.90
45837;DHT22;31548;51.420;-0.040;2023-12-20T15:32:34;10.70;99.90
45837;DHT22;31548;51.420;-0.040;2023-12-20T15:35:04;10.60;99.90
45837;DHT22;31548;51.420;-0.040;2023-12-20T15:37:32;10.70;99.90
45837;DHT22;31548;51.420;-0.040;2023-12-20T15:40:00;10.60;99.90
45837;DHT22;31548;51.420;-0.040;2023-12-20T15:42:32;10.70;99.90